Geronimo, TX (78115)

9:57 AM CDT on March 30, 2015 (GMT -0500)
Mill Creek Crossing | | Change Station
CLOSE
Current Station
Personal Weather Station
Location: Seguin, TX
Elevation: 584 ft
Nearby Weather Stations

Elev 584 ft 29.61 °N, 98.01 °W | Updated 13 minutes ago

Overcast
Overcast
68.7 °F
Feels Like 68.7 °F
N
0.0
Wind Variable Wind from SSW

Today
High -- | Low -- °F
--% Chance of Precip.
Yesterday
High -- | Low -- °F
Precip. -- in
7:24 AM 7:49 PM
Waxing Gibbous, 80% visible
Pressure 30.15 in
Visibility 10.0 miles
Clouds Scattered Clouds 1000 ft
Overcast 2200 ft
Dew Point 65 °F
Humidity 88%
Rainfall 0.00 in
Snow Depth Not available.
UV 1 out of 12
Pollen 10.90 out of 12
Air Quality Not available.
Flu Activity Not available.
METAR KBAZ 301451Z 15005KT 10SM SCT010 OVC022 20/18 A3017 RMK AO2 SLP210 T02000178 51018

More Conditions Fewer Conditions

Pressure 30.15 in
Visibility 10.0 miles
Clouds Scattered Clouds 1000 ft
Overcast 2200 ft
Dew Point 65 °F
Humidity 88%
Rainfall 0.00 in
Snow Depth Not available.
UV 1 out of 12
Pollen 10.90 out of 12
Air Quality Not available.
Flu Activity Not available.
METAR KBAZ 301451Z 15005KT 10SM SCT010 OVC022 20/18 A3017 RMK AO2 SLP210 T02000178 51018

More Conditions Fewer Conditions

10-Day Weather Forecast

Almanac

Astronomy

Mar. 30, 2015 Rise Set
Actual Time
Civil Twilight
Nautical Twilight
Astronomical Twilight
Moon
Length of Visible Light
Length of Day
Tomorrow will be .
, % of the Moon is Illuminated

Today's Extremes

State Highs State Lows

Community

WunderPhotos

Upload Photos

1,809,509 photos uploaded!

WunderBlogs® & News

Nearby

Air Quality

  Air Quality AQ Index Pollutant
Not available.

Snow Depth

Station Depth Elevation

Earthquake Activity

City Distance Mag. Time & Date
Minimum magnitude displayed is 2.5.

Coastal Water Temperatures

Place Temperature

Stations

Nearby Weather Stations

Station Location Temp. Windchill Dew Point Humidity Wind Precip. Elev Updated Type